sensor_id;sensor_type;location;lat;lon;timestamp;P1;durP1;ratioP1;P2;durP2;ratioP2
58528;SDS011;44322;52.968;5.816;2023-05-10T00:02:24;12.52;;;9.57;;
58528;SDS011;44322;52.968;5.816;2023-05-10T00:04:50;12.75;;;9.95;;
58528;SDS011;44322;52.968;5.816;2023-05-10T00:07:15;13.40;;;10.32;;
58528;SDS011;44322;52.968;5.816;2023-05-10T00:09:42;15.77;;;11.02;;
58528;SDS011;44322;52.968;5.816;2023-05-10T00:12:08;15.25;;;11.13;;
58528;SDS011;44322;52.968;5.816;2023-05-10T00:14:34;21.42;;;12.95;;
58528;SDS011;44322;52.968;5.816;2023-05-10T00:16:59;20.25;;;13.15;;
58528;SDS011;44322;52.968;5.816;2023-05-10T00:19:25;19.33;;;13.07;;
58528;SDS011;44322;52.968;5.816;2023-05-10T00:21:50;21.25;;;13.43;;
58528;SDS011;44322;52.968;5.816;2023-05-10T00:24:16;22.60;;;13.48;;
58528;SDS011;44322;52.968;5.816;2023-05-10T00:26:42;18.15;;;11.65;;
58528;SDS011;44322;52.968;5.816;2023-05-10T00:29:08;20.30;;;12.38;;
58528;SDS011;44322;52.968;5.816;2023-05-10T00:31:34;19.33;;;13.00;;
58528;SDS011;44322;52.968;5.816;2023-05-10T00:33:59;20.48;;;11.95;;
58528;SDS011;44322;52.968;5.816;2023-05-10T00:36:25;19.63;;;12.70;;
58528;SDS011;44322;52.968;5.816;2023-05-10T00:38:51;21.20;;;13.18;;
58528;SDS011;44322;52.968;5.816;2023-05-10T00:41:16;22.15;;;12.80;;
58528;SDS011;44322;52.968;5.816;2023-05-10T00:43:43;20.57;;;12.73;;
58528;SDS011;44322;52.968;5.816;2023-05-10T00:46:09;17.65;;;12.90;;
58528;SDS011;44322;52.968;5.816;2023-05-10T00:48:35;17.90;;;12.70;;
58528;SDS011;44322;52.968;5.816;2023-05-10T00:51:01;17.75;;;12.77;;
58528;SDS011;44322;52.968;5.816;2023-05-10T00:53:27;15.32;;;12.00;;
58528;SDS011;44322;52.968;5.816;2023-05-10T00:55:52;16.75;;;12.27;;
58528;SDS011;44322;52.968;5.816;2023-05-10T00:58:18;12.60;;;9.57;;
58528;SDS011;44322;52.968;5.816;2023-05-10T01:00:44;10.48;;;8.20;;
58528;SDS011;44322;52.968;5.816;2023-05-10T01:03:11;9.98;;;7.78;;
58528;SDS011;44322;52.968;5.816;2023-05-10T01:05:37;9.82;;;7.10;;
58528;SDS011;44322;52.968;5.816;2023-05-10T01:08:03;10.65;;;7.63;;
58528;SDS011;44322;52.968;5.816;2023-05-10T01:10:29;10.45;;;7.47;;
58528;SDS011;44322;52.968;5.816;2023-05-10T01:12:55;10.48;;;7.57;;
58528;SDS011;44322;52.968;5.816;2023-05-10T01:15:21;10.98;;;7.40;;
58528;SDS011;44322;52.968;5.816;2023-05-10T01:17:47;9.88;;;7.63;;
58528;SDS011;44322;52.968;5.816;2023-05-10T01:20:13;11.02;;;7.60;;
58528;SDS011;44322;52.968;5.816;2023-05-10T01:34:08;9.20;;;7.50;;
58528;SDS011;44322;52.968;5.816;2023-05-10T01:36:40;10.48;;;7.35;;
58528;SDS011;44322;52.968;5.816;2023-05-10T01:39:11;11.60;;;7.30;;
58528;SDS011;44322;52.968;5.816;2023-05-10T01:44:43;10.98;;;6.88;;
58528;SDS011;44322;52.968;5.816;2023-05-10T01:50:21;10.73;;;6.93;;
58528;SDS011;44322;52.968;5.816;2023-05-10T01:52:50;9.32;;;6.75;;
58528;SDS011;44322;52.968;5.816;2023-05-10T01:55:18;10.60;;;6.80;;
58528;SDS011;44322;52.968;5.816;2023-05-10T01:57:46;9.98;;;6.65;;
58528;SDS011;44322;52.968;5.816;2023-05-10T02:00:13;11.98;;;6.40;;
58528;SDS011;44322;52.968;5.816;2023-05-10T02:02:48;8.13;;;6.57;;
58528;SDS011;44322;52.968;5.816;2023-05-10T02:05:15;7.97;;;5.65;;
58528;SDS011;44322;52.968;5.816;2023-05-10T02:07:41;6.63;;;5.47;;
58528;SDS011;44322;52.968;5.816;2023-05-10T02:10:07;6.22;;;5.00;;
58528;SDS011;44322;52.968;5.816;2023-05-10T02:12:39;6.80;;;5.47;;
58528;SDS011;44322;52.968;5.816;2023-05-10T02:15:07;7.82;;;5.63;;
58528;SDS011;44322;52.968;5.816;2023-05-10T02:17:34;9.10;;;6.18;;
58528;SDS011;44322;52.968;5.816;2023-05-10T02:20:04;7.20;;;5.45;;
58528;SDS011;44322;52.968;5.816;2023-05-10T02:22:32;8.32;;;6.47;;
58528;SDS011;44322;52.968;5.816;2023-05-10T02:24:58;7.63;;;6.50;;
58528;SDS011;44322;52.968;5.816;2023-05-10T02:27:27;7.80;;;6.40;;
58528;SDS011;44322;52.968;5.816;2023-05-10T02:29:53;7.93;;;6.85;;
58528;SDS011;44322;52.968;5.816;2023-05-10T02:34:46;7.85;;;6.38;;
58528;SDS011;44322;52.968;5.816;2023-05-10T02:37:18;8.52;;;7.05;;
58528;SDS011;44322;52.968;5.816;2023-05-10T02:39:48;9.05;;;7.15;;
58528;SDS011;44322;52.968;5.816;2023-05-10T02:42:18;9.15;;;7.07;;
58528;SDS011;44322;52.968;5.816;2023-05-10T02:44:45;7.57;;;6.78;;
58528;SDS011;44322;52.968;5.816;2023-05-10T02:47:14;7.35;;;6.07;;
58528;SDS011;44322;52.968;5.816;2023-05-10T02:49:39;5.90;;;5.20;;
58528;SDS011;44322;52.968;5.816;2023-05-10T02:52:05;6.65;;;5.80;;
58528;SDS011;44322;52.968;5.816;2023-05-10T02:54:37;6.10;;;5.40;;
58528;SDS011;44322;52.968;5.816;2023-05-10T02:57:06;5.43;;;4.93;;
58528;SDS011;44322;52.968;5.816;2023-05-10T02:59:32;5.90;;;5.30;;
58528;SDS011;44322;52.968;5.816;2023-05-10T03:01:59;6.43;;;5.20;;
58528;SDS011;44322;52.968;5.816;2023-05-10T03:04:25;5.05;;;4.55;;
58528;SDS011;44322;52.968;5.816;2023-05-10T03:06:53;5.40;;;4.90;;
58528;SDS011;44322;52.968;5.816;2023-05-10T03:09:19;5.22;;;4.72;;
58528;SDS011;44322;52.968;5.816;2023-05-10T03:20:22;7.28;;;5.65;;
58528;SDS011;44322;52.968;5.816;2023-05-10T03:23:00;5.45;;;4.95;;
58528;SDS011;44322;52.968;5.816;2023-05-10T03:25:30;6.82;;;6.13;;
58528;SDS011;44322;52.968;5.816;2023-05-10T03:27:56;6.68;;;5.97;;
58528;SDS011;44322;52.968;5.816;2023-05-10T03:30:24;5.72;;;5.22;;
58528;SDS011;44322;52.968;5.816;2023-05-10T03:32:50;8.10;;;6.53;;
58528;SDS011;44322;52.968;5.816;2023-05-10T03:35:17;7.97;;;6.68;;
58528;SDS011;44322;52.968;5.816;2023-05-10T03:37:43;6.93;;;6.20;;
58528;SDS011;44322;52.968;5.816;2023-05-10T03:40:09;8.27;;;6.80;;
58528;SDS011;44322;52.968;5.816;2023-05-10T03:42:36;7.18;;;6.25;;
58528;SDS011;44322;52.968;5.816;2023-05-10T03:45:02;6.95;;;6.25;;
58528;SDS011;44322;52.968;5.816;2023-05-10T03:47:28;7.72;;;6.93;;
58528;SDS011;44322;52.968;5.816;2023-05-10T03:49:55;7.15;;;6.43;;
58528;SDS011;44322;52.968;5.816;2023-05-10T03:52:21;7.93;;;6.45;;
58528;SDS011;44322;52.968;5.816;2023-05-10T03:54:47;7.53;;;6.72;;
58528;SDS011;44322;52.968;5.816;2023-05-10T03:57:12;7.35;;;6.60;;
58528;SDS011;44322;52.968;5.816;2023-05-10T03:59:38;9.07;;;7.18;;
58528;SDS011;44322;52.968;5.816;2023-05-10T04:02:03;7.97;;;6.20;;
58528;SDS011;44322;52.968;5.816;2023-05-10T04:04:29;7.70;;;6.50;;
58528;SDS011;44322;52.968;5.816;2023-05-10T04:06:55;6.78;;;6.00;;
58528;SDS011;44322;52.968;5.816;2023-05-10T04:09:20;7.85;;;5.93;;
58528;SDS011;44322;52.968;5.816;2023-05-10T04:11:46;7.55;;;6.10;;
58528;SDS011;44322;52.968;5.816;2023-05-10T04:14:12;6.10;;;5.30;;
58528;SDS011;44322;52.968;5.816;2023-05-10T04:16:37;5.57;;;4.97;;
58528;SDS011;44322;52.968;5.816;2023-05-10T04:19:03;6.47;;;5.10;;
58528;SDS011;44322;52.968;5.816;2023-05-10T04:21:29;7.15;;;5.43;;
58528;SDS011;44322;52.968;5.816;2023-05-10T04:23:55;6.97;;;5.65;;
58528;SDS011;44322;52.968;5.816;2023-05-10T04:26:21;7.13;;;5.85;;
58528;SDS011;44322;52.968;5.816;2023-05-10T04:28:47;6.82;;;6.05;;
58528;SDS011;44322;52.968;5.816;2023-05-10T04:31:12;8.18;;;6.30;;
58528;SDS011;44322;52.968;5.816;2023-05-10T04:33:38;6.53;;;5.80;;
58528;SDS011;44322;52.968;5.816;2023-05-10T04:36:04;6.63;;;5.63;;
58528;SDS011;44322;52.968;5.816;2023-05-10T04:38:29;7.85;;;5.80;;
58528;SDS011;44322;52.968;5.816;2023-05-10T04:41:03;6.57;;;5.15;;
58528;SDS011;44322;52.968;5.816;2023-05-10T04:43:32;6.38;;;4.97;;
58528;SDS011;44322;52.968;5.816;2023-05-10T04:45:58;5.95;;;4.72;;
58528;SDS011;44322;52.968;5.816;2023-05-10T04:48:24;6.03;;;4.45;;
58528;SDS011;44322;52.968;5.816;2023-05-10T04:50:50;5.65;;;4.10;;
58528;SDS011;44322;52.968;5.816;2023-05-10T04:53:15;6.55;;;4.40;;
58528;SDS011;44322;52.968;5.816;2023-05-10T04:55:41;4.03;;;3.60;;
58528;SDS011;44322;52.968;5.816;2023-05-10T04:58:07;4.30;;;3.75;;
58528;SDS011;44322;52.968;5.816;2023-05-10T05:00:33;5.40;;;3.70;;
58528;SDS011;44322;52.968;5.816;2023-05-10T05:02:59;4.55;;;3.97;;
58528;SDS011;44322;52.968;5.816;2023-05-10T05:05:24;6.07;;;4.85;;
58528;SDS011;44322;52.968;5.816;2023-05-10T05:07:50;6.60;;;5.35;;
58528;SDS011;44322;52.968;5.816;2023-05-10T05:10:16;6.32;;;5.13;;
58528;SDS011;44322;52.968;5.816;2023-05-10T05:12:42;7.18;;;5.32;;
58528;SDS011;44322;52.968;5.816;2023-05-10T05:15:18;9.53;;;6.00;;
58528;SDS011;44322;52.968;5.816;2023-05-10T05:17:44;10.60;;;6.00;;
58528;SDS011;44322;52.968;5.816;2023-05-10T05:20:10;6.47;;;5.50;;
58528;SDS011;44322;52.968;5.816;2023-05-10T05:22:36;8.90;;;6.75;;
58528;SDS011;44322;52.968;5.816;2023-05-10T05:25:02;9.02;;;7.07;;
58528;SDS011;44322;52.968;5.816;2023-05-10T05:27:28;8.52;;;6.78;;
58528;SDS011;44322;52.968;5.816;2023-05-10T05:29:55;9.52;;;6.75;;
58528;SDS011;44322;52.968;5.816;2023-05-10T05:32:21;9.05;;;6.70;;
58528;SDS011;44322;52.968;5.816;2023-05-10T05:34:50;9.02;;;6.70;;
58528;SDS011;44322;52.968;5.816;2023-05-10T05:37:18;9.40;;;6.47;;
58528;SDS011;44322;52.968;5.816;2023-05-10T05:42:10;9.40;;;6.90;;
58528;SDS011;44322;52.968;5.816;2023-05-10T05:44:36;8.07;;;5.82;;
58528;SDS011;44322;52.968;5.816;2023-05-10T05:47:02;8.63;;;6.20;;
58528;SDS011;44322;52.968;5.816;2023-05-10T05:49:27;7.78;;;5.97;;
58528;SDS011;44322;52.968;5.816;2023-05-10T05:51:53;7.82;;;4.70;;
58528;SDS011;44322;52.968;5.816;2023-05-10T05:54:19;5.88;;;4.18;;
58528;SDS011;44322;52.968;5.816;2023-05-10T05:56:45;5.82;;;4.18;;
58528;SDS011;44322;52.968;5.816;2023-05-10T05:59:11;5.88;;;4.30;;
58528;SDS011;44322;52.968;5.816;2023-05-10T06:01:36;8.00;;;4.47;;
58528;SDS011;44322;52.968;5.816;2023-05-10T06:04:02;5.85;;;4.28;;
58528;SDS011;44322;52.968;5.816;2023-05-10T06:06:28;5.05;;;4.10;;
58528;SDS011;44322;52.968;5.816;2023-05-10T06:08:53;5.00;;;4.15;;
58528;SDS011;44322;52.968;5.816;2023-05-10T06:11:19;5.53;;;4.35;;
58528;SDS011;44322;52.968;5.816;2023-05-10T06:13:46;6.50;;;4.60;;
58528;SDS011;44322;52.968;5.816;2023-05-10T06:16:12;7.18;;;4.32;;
58528;SDS011;44322;52.968;5.816;2023-05-10T06:18:38;7.03;;;4.78;;
58528;SDS011;44322;52.968;5.816;2023-05-10T06:21:03;5.47;;;4.05;;
58528;SDS011;44322;52.968;5.816;2023-05-10T06:23:29;4.82;;;3.50;;
58528;SDS011;44322;52.968;5.816;2023-05-10T06:25:55;4.45;;;3.58;;
58528;SDS011;44322;52.968;5.816;2023-05-10T06:28:20;4.43;;;3.70;;
58528;SDS011;44322;52.968;5.816;2023-05-10T06:30:46;5.10;;;4.07;;
58528;SDS011;44322;52.968;5.816;2023-05-10T06:33:11;5.25;;;4.40;;
58528;SDS011;44322;52.968;5.816;2023-05-10T06:35:37;4.88;;;4.22;;
58528;SDS011;44322;52.968;5.816;2023-05-10T06:38:04;7.28;;;5.10;;
58528;SDS011;44322;52.968;5.816;2023-05-10T06:40:29;5.95;;;4.50;;
58528;SDS011;44322;52.968;5.816;2023-05-10T06:42:55;8.10;;;4.70;;
58528;SDS011;44322;52.968;5.816;2023-05-10T06:45:21;5.85;;;4.40;;
58528;SDS011;44322;52.968;5.816;2023-05-10T06:47:46;4.75;;;4.25;;
58528;SDS011;44322;52.968;5.816;2023-05-10T06:50:12;5.25;;;4.07;;
58528;SDS011;44322;52.968;5.816;2023-05-10T06:52:37;5.40;;;3.92;;
58528;SDS011;44322;52.968;5.816;2023-05-10T06:55:03;6.53;;;5.22;;
58528;SDS011;44322;52.968;5.816;2023-05-10T06:57:30;8.45;;;4.53;;
58528;SDS011;44322;52.968;5.816;2023-05-10T06:59:56;5.30;;;4.15;;
58528;SDS011;44322;52.968;5.816;2023-05-10T07:02:22;4.32;;;3.70;;
58528;SDS011;44322;52.968;5.816;2023-05-10T07:04:47;3.80;;;3.28;;
58528;SDS011;44322;52.968;5.816;2023-05-10T07:07:13;4.53;;;3.53;;
58528;SDS011;44322;52.968;5.816;2023-05-10T07:09:39;3.83;;;3.35;;
58528;SDS011;44322;52.968;5.816;2023-05-10T07:12:05;5.05;;;3.92;;
58528;SDS011;44322;52.968;5.816;2023-05-10T07:14:31;6.30;;;4.63;;
58528;SDS011;44322;52.968;5.816;2023-05-10T07:16:56;6.20;;;4.70;;
58528;SDS011;44322;52.968;5.816;2023-05-10T07:19:22;5.53;;;4.60;;
58528;SDS011;44322;52.968;5.816;2023-05-10T07:21:47;6.03;;;4.85;;
58528;SDS011;44322;52.968;5.816;2023-05-10T07:24:13;5.32;;;4.30;;
58528;SDS011;44322;52.968;5.816;2023-05-10T07:26:38;4.47;;;3.47;;
58528;SDS011;44322;52.968;5.816;2023-05-10T07:29:06;5.45;;;3.60;;
58528;SDS011;44322;52.968;5.816;2023-05-10T07:31:32;5.00;;;3.08;;
58528;SDS011;44322;52.968;5.816;2023-05-10T07:33:57;3.80;;;3.00;;
58528;SDS011;44322;52.968;5.816;2023-05-10T07:36:23;5.05;;;3.03;;
58528;SDS011;44322;52.968;5.816;2023-05-10T07:38:49;2.78;;;2.28;;
58528;SDS011;44322;52.968;5.816;2023-05-10T07:41:14;4.25;;;2.40;;
58528;SDS011;44322;52.968;5.816;2023-05-10T07:43:40;2.83;;;2.17;;
58528;SDS011;44322;52.968;5.816;2023-05-10T07:46:06;2.70;;;2.30;;
58528;SDS011;44322;52.968;5.816;2023-05-10T07:48:32;2.83;;;2.50;;
58528;SDS011;44322;52.968;5.816;2023-05-10T07:50:57;3.55;;;2.50;;
58528;SDS011;44322;52.968;5.816;2023-05-10T07:53:23;3.40;;;2.45;;
58528;SDS011;44322;52.968;5.816;2023-05-10T07:55:53;3.90;;;2.80;;
58528;SDS011;44322;52.968;5.816;2023-05-10T07:58:19;3.88;;;3.10;;
58528;SDS011;44322;52.968;5.816;2023-05-10T08:00:45;3.90;;;3.30;;
58528;SDS011;44322;52.968;5.816;2023-05-10T08:03:11;4.85;;;3.88;;
58528;SDS011;44322;52.968;5.816;2023-05-10T08:05:36;5.03;;;3.75;;
58528;SDS011;44322;52.968;5.816;2023-05-10T08:08:02;4.97;;;4.07;;
58528;SDS011;44322;52.968;5.816;2023-05-10T08:10:28;6.60;;;4.40;;
58528;SDS011;44322;52.968;5.816;2023-05-10T08:12:53;6.80;;;5.00;;
58528;SDS011;44322;52.968;5.816;2023-05-10T08:15:19;9.02;;;5.63;;
58528;SDS011;44322;52.968;5.816;2023-05-10T08:17:44;7.20;;;5.25;;
58528;SDS011;44322;52.968;5.816;2023-05-10T08:20:10;5.70;;;4.20;;
58528;SDS011;44322;52.968;5.816;2023-05-10T08:22:38;6.10;;;3.70;;
58528;SDS011;44322;52.968;5.816;2023-05-10T08:25:03;4.85;;;3.60;;
58528;SDS011;44322;52.968;5.816;2023-05-10T08:27:29;5.68;;;3.67;;
58528;SDS011;44322;52.968;5.816;2023-05-10T08:29:55;4.28;;;3.50;;
58528;SDS011;44322;52.968;5.816;2023-05-10T08:32:20;5.25;;;3.67;;
58528;SDS011;44322;52.968;5.816;2023-05-10T08:34:46;5.70;;;3.60;;
58528;SDS011;44322;52.968;5.816;2023-05-10T08:37:11;5.32;;;3.53;;
58528;SDS011;44322;52.968;5.816;2023-05-10T08:39:38;5.40;;;4.07;;
58528;SDS011;44322;52.968;5.816;2023-05-10T08:42:04;5.40;;;3.55;;
58528;SDS011;44322;52.968;5.816;2023-05-10T08:44:34;4.65;;;3.38;;
58528;SDS011;44322;52.968;5.816;2023-05-10T08:47:04;3.65;;;2.83;;
58528;SDS011;44322;52.968;5.816;2023-05-10T08:49:32;3.60;;;2.78;;
58528;SDS011;44322;52.968;5.816;2023-05-10T08:51:59;3.63;;;2.65;;
58528;SDS011;44322;52.968;5.816;2023-05-10T08:54:29;3.20;;;2.90;;
58528;SDS011;44322;52.968;5.816;2023-05-10T08:56:56;3.95;;;2.90;;
58528;SDS011;44322;52.968;5.816;2023-05-10T08:59:22;4.28;;;3.65;;
58528;SDS011;44322;52.968;5.816;2023-05-10T09:01:47;3.80;;;3.03;;
58528;SDS011;44322;52.968;5.816;2023-05-10T09:04:14;3.92;;;3.13;;
58528;SDS011;44322;52.968;5.816;2023-05-10T09:06:40;4.22;;;3.10;;
58528;SDS011;44322;52.968;5.816;2023-05-10T09:09:06;4.43;;;3.40;;
58528;SDS011;44322;52.968;5.816;2023-05-10T09:11:31;4.88;;;3.33;;
58528;SDS011;44322;52.968;5.816;2023-05-10T09:13:57;3.97;;;3.40;;
58528;SDS011;44322;52.968;5.816;2023-05-10T09:16:23;4.30;;;2.90;;
58528;SDS011;44322;52.968;5.816;2023-05-10T09:18:49;5.22;;;3.50;;
58528;SDS011;44322;52.968;5.816;2023-05-10T09:21:14;4.20;;;2.92;;
58528;SDS011;44322;52.968;5.816;2023-05-10T09:23:44;4.22;;;3.13;;
58528;SDS011;44322;52.968;5.816;2023-05-10T09:26:12;4.03;;;2.60;;
58528;SDS011;44322;52.968;5.816;2023-05-10T09:31:22;3.72;;;2.83;;
58528;SDS011;44322;52.968;5.816;2023-05-10T09:33:50;4.32;;;2.80;;
58528;SDS011;44322;52.968;5.816;2023-05-10T09:36:16;3.67;;;2.70;;
58528;SDS011;44322;52.968;5.816;2023-05-10T09:38:46;3.80;;;2.65;;
58528;SDS011;44322;52.968;5.816;2023-05-10T09:41:17;5.20;;;2.85;;
58528;SDS011;44322;52.968;5.816;2023-05-10T09:43:45;4.15;;;3.00;;
58528;SDS011;44322;52.968;5.816;2023-05-10T09:46:11;3.55;;;2.50;;
58528;SDS011;44322;52.968;5.816;2023-05-10T09:48:54;4.10;;;2.85;;
58528;SDS011;44322;52.968;5.816;2023-05-10T09:51:24;3.72;;;2.95;;
58528;SDS011;44322;52.968;5.816;2023-05-10T09:54:09;5.90;;;3.05;;
58528;SDS011;44322;52.968;5.816;2023-05-10T09:56:38;3.53;;;2.50;;
58528;SDS011;44322;52.968;5.816;2023-05-10T09:59:06;4.13;;;3.20;;
58528;SDS011;44322;52.968;5.816;2023-05-10T10:01:34;4.82;;;3.08;;
58528;SDS011;44322;52.968;5.816;2023-05-10T10:04:07;5.05;;;3.70;;
58528;SDS011;44322;52.968;5.816;2023-05-10T10:06:37;5.93;;;4.05;;
58528;SDS011;44322;52.968;5.816;2023-05-10T10:09:03;7.65;;;5.03;;
58528;SDS011;44322;52.968;5.816;2023-05-10T10:11:29;6.43;;;5.10;;
58528;SDS011;44322;52.968;5.816;2023-05-10T10:13:55;8.20;;;5.35;;
58528;SDS011;44322;52.968;5.816;2023-05-10T10:16:21;9.23;;;6.43;;
58528;SDS011;44322;52.968;5.816;2023-05-10T10:18:46;9.77;;;6.72;;
58528;SDS011;44322;52.968;5.816;2023-05-10T10:21:13;10.57;;;6.85;;
58528;SDS011;44322;52.968;5.816;2023-05-10T10:23:39;11.77;;;7.18;;
58528;SDS011;44322;52.968;5.816;2023-05-10T10:26:04;13.23;;;7.95;;
58528;SDS011;44322;52.968;5.816;2023-05-10T10:31:00;17.17;;;8.48;;
58528;SDS011;44322;52.968;5.816;2023-05-10T10:36:25;15.98;;;9.40;;
58528;SDS011;44322;52.968;5.816;2023-05-10T10:38:58;14.63;;;8.98;;
58528;SDS011;44322;52.968;5.816;2023-05-10T10:49:37;13.63;;;8.25;;
58528;SDS011;44322;52.968;5.816;2023-05-10T10:54:41;15.43;;;8.38;;
58528;SDS011;44322;52.968;5.816;2023-05-10T10:57:14;14.32;;;9.18;;
58528;SDS011;44322;52.968;5.816;2023-05-10T10:59:43;14.38;;;9.35;;
58528;SDS011;44322;52.968;5.816;2023-05-10T11:02:45;15.18;;;9.50;;
58528;SDS011;44322;52.968;5.816;2023-05-10T11:07:56;17.67;;;10.57;;
58528;SDS011;44322;52.968;5.816;2023-05-10T11:10:23;13.82;;;9.05;;
58528;SDS011;44322;52.968;5.816;2023-05-10T11:12:51;14.65;;;8.90;;
58528;SDS011;44322;52.968;5.816;2023-05-10T11:15:33;15.13;;;9.00;;
58528;SDS011;44322;52.968;5.816;2023-05-10T11:21:00;15.75;;;10.05;;
58528;SDS011;44322;52.968;5.816;2023-05-10T11:26:07;16.27;;;9.93;;
58528;SDS011;44322;52.968;5.816;2023-05-10T11:28:34;15.02;;;9.77;;
58528;SDS011;44322;52.968;5.816;2023-05-10T11:31:02;16.27;;;10.32;;
58528;SDS011;44322;52.968;5.816;2023-05-10T11:33:27;18.05;;;11.00;;
58528;SDS011;44322;52.968;5.816;2023-05-10T11:35:53;16.23;;;9.75;;
58528;SDS011;44322;52.968;5.816;2023-05-10T11:38:19;16.35;;;9.13;;
58528;SDS011;44322;52.968;5.816;2023-05-10T11:40:44;15.50;;;9.65;;
58528;SDS011;44322;52.968;5.816;2023-05-10T11:43:10;18.45;;;9.95;;
58528;SDS011;44322;52.968;5.816;2023-05-10T11:45:36;17.15;;;10.63;;
58528;SDS011;44322;52.968;5.816;2023-05-10T11:48:02;15.93;;;10.23;;
58528;SDS011;44322;52.968;5.816;2023-05-10T11:50:27;16.13;;;10.02;;
58528;SDS011;44322;52.968;5.816;2023-05-10T11:52:54;13.98;;;9.63;;
58528;SDS011;44322;52.968;5.816;2023-05-10T11:55:21;16.38;;;10.68;;
58528;SDS011;44322;52.968;5.816;2023-05-10T11:57:46;18.55;;;10.35;;
58528;SDS011;44322;52.968;5.816;2023-05-10T12:00:13;12.38;;;8.88;;
58528;SDS011;44322;52.968;5.816;2023-05-10T12:02:41;13.52;;;9.13;;
58528;SDS011;44322;52.968;5.816;2023-05-10T12:05:07;13.85;;;8.98;;
58528;SDS011;44322;52.968;5.816;2023-05-10T12:07:33;12.45;;;8.15;;
58528;SDS011;44322;52.968;5.816;2023-05-10T12:10:17;11.82;;;8.38;;
58528;SDS011;44322;52.968;5.816;2023-05-10T12:12:51;12.80;;;7.53;;
58528;SDS011;44322;52.968;5.816;2023-05-10T12:15:18;10.25;;;6.80;;
58528;SDS011;44322;52.968;5.816;2023-05-10T12:17:45;10.35;;;6.97;;
58528;SDS011;44322;52.968;5.816;2023-05-10T12:20:18;12.90;;;8.10;;
58528;SDS011;44322;52.968;5.816;2023-05-10T12:22:54;11.50;;;8.02;;
58528;SDS011;44322;52.968;5.816;2023-05-10T12:25:22;10.40;;;7.68;;
58528;SDS011;44322;52.968;5.816;2023-05-10T12:27:52;11.68;;;8.73;;
58528;SDS011;44322;52.968;5.816;2023-05-10T12:30:20;12.25;;;7.97;;
58528;SDS011;44322;52.968;5.816;2023-05-10T12:32:52;11.90;;;7.80;;
58528;SDS011;44322;52.968;5.816;2023-05-10T12:35:18;10.93;;;7.35;;
58528;SDS011;44322;52.968;5.816;2023-05-10T12:37:50;11.88;;;7.30;;
58528;SDS011;44322;52.968;5.816;2023-05-10T12:40:16;8.85;;;6.68;;
58528;SDS011;44322;52.968;5.816;2023-05-10T12:42:41;8.25;;;5.95;;
58528;SDS011;44322;52.968;5.816;2023-05-10T12:45:08;6.10;;;4.85;;
58528;SDS011;44322;52.968;5.816;2023-05-10T12:47:34;6.00;;;4.75;;
58528;SDS011;44322;52.968;5.816;2023-05-10T12:50:01;6.18;;;4.75;;
58528;SDS011;44322;52.968;5.816;2023-05-10T12:52:28;8.05;;;4.65;;
58528;SDS011;44322;52.968;5.816;2023-05-10T12:54:53;5.03;;;4.28;;
58528;SDS011;44322;52.968;5.816;2023-05-10T12:57:20;5.93;;;4.25;;
58528;SDS011;44322;52.968;5.816;2023-05-10T12:59:46;5.40;;;4.25;;
58528;SDS011;44322;52.968;5.816;2023-05-10T13:02:11;4.68;;;4.18;;
58528;SDS011;44322;52.968;5.816;2023-05-10T13:04:38;5.47;;;4.65;;
58528;SDS011;44322;52.968;5.816;2023-05-10T13:07:05;5.47;;;4.35;;
58528;SDS011;44322;52.968;5.816;2023-05-10T13:09:31;5.47;;;4.50;;
58528;SDS011;44322;52.968;5.816;2023-05-10T13:11:57;5.68;;;4.38;;
58528;SDS011;44322;52.968;5.816;2023-05-10T13:14:22;5.53;;;4.13;;
58528;SDS011;44322;52.968;5.816;2023-05-10T13:16:48;6.18;;;4.40;;
58528;SDS011;44322;52.968;5.816;2023-05-10T13:19:13;4.45;;;4.00;;
58528;SDS011;44322;52.968;5.816;2023-05-10T13:21:39;5.22;;;4.05;;
58528;SDS011;44322;52.968;5.816;2023-05-10T13:24:06;4.70;;;4.05;;
58528;SDS011;44322;52.968;5.816;2023-05-10T13:26:32;4.53;;;3.97;;
58528;SDS011;44322;52.968;5.816;2023-05-10T13:28:58;5.00;;;3.80;;
58528;SDS011;44322;52.968;5.816;2023-05-10T13:31:23;7.47;;;4.10;;
58528;SDS011;44322;52.968;5.816;2023-05-10T13:33:49;5.30;;;4.38;;
58528;SDS011;44322;52.968;5.816;2023-05-10T13:36:14;6.95;;;4.45;;
58528;SDS011;44322;52.968;5.816;2023-05-10T13:38:40;5.57;;;4.05;;
58528;SDS011;44322;52.968;5.816;2023-05-10T13:41:05;5.70;;;3.97;;
58528;SDS011;44322;52.968;5.816;2023-05-10T13:43:31;6.80;;;4.25;;
58528;SDS011;44322;52.968;5.816;2023-05-10T13:45:57;5.60;;;3.70;;
58528;SDS011;44322;52.968;5.816;2023-05-10T13:48:22;5.63;;;3.78;;
58528;SDS011;44322;52.968;5.816;2023-05-10T13:50:48;4.85;;;3.95;;
58528;SDS011;44322;52.968;5.816;2023-05-10T13:53:13;5.25;;;3.80;;
58528;SDS011;44322;52.968;5.816;2023-05-10T13:55:39;5.32;;;4.15;;
58528;SDS011;44322;52.968;5.816;2023-05-10T13:58:05;5.25;;;4.03;;
58528;SDS011;44322;52.968;5.816;2023-05-10T14:00:30;5.47;;;4.30;;
58528;SDS011;44322;52.968;5.816;2023-05-10T14:02:56;6.53;;;5.28;;
58528;SDS011;44322;52.968;5.816;2023-05-10T14:05:21;6.30;;;4.55;;
58528;SDS011;44322;52.968;5.816;2023-05-10T14:07:48;6.65;;;4.80;;
58528;SDS011;44322;52.968;5.816;2023-05-10T14:10:15;6.97;;;4.55;;
58528;SDS011;44322;52.968;5.816;2023-05-10T14:12:40;7.97;;;5.28;;
58528;SDS011;44322;52.968;5.816;2023-05-10T14:15:06;7.93;;;5.38;;
58528;SDS011;44322;52.968;5.816;2023-05-10T14:17:32;11.50;;;6.50;;
58528;SDS011;44322;52.968;5.816;2023-05-10T14:19:58;9.85;;;6.72;;
58528;SDS011;44322;52.968;5.816;2023-05-10T14:22:23;10.02;;;7.07;;
58528;SDS011;44322;52.968;5.816;2023-05-10T14:24:49;10.05;;;7.07;;
58528;SDS011;44322;52.968;5.816;2023-05-10T14:27:15;9.80;;;6.20;;
58528;SDS011;44322;52.968;5.816;2023-05-10T14:29:41;8.85;;;6.30;;
58528;SDS011;44322;52.968;5.816;2023-05-10T14:32:07;9.23;;;5.97;;
58528;SDS011;44322;52.968;5.816;2023-05-10T14:34:33;8.23;;;5.93;;
58528;SDS011;44322;52.968;5.816;2023-05-10T14:36:58;9.18;;;5.63;;
58528;SDS011;44322;52.968;5.816;2023-05-10T14:39:24;9.07;;;6.03;;
58528;SDS011;44322;52.968;5.816;2023-05-10T14:41:50;10.10;;;6.00;;
58528;SDS011;44322;52.968;5.816;2023-05-10T14:44:17;11.20;;;6.23;;
58528;SDS011;44322;52.968;5.816;2023-05-10T14:46:42;12.25;;;7.32;;
58528;SDS011;44322;52.968;5.816;2023-05-10T14:49:08;11.23;;;6.80;;
58528;SDS011;44322;52.968;5.816;2023-05-10T14:51:34;9.93;;;6.75;;
58528;SDS011;44322;52.968;5.816;2023-05-10T14:53:59;9.85;;;6.47;;
58528;SDS011;44322;52.968;5.816;2023-05-10T14:56:25;7.72;;;5.78;;
58528;SDS011;44322;52.968;5.816;2023-05-10T14:58:51;9.98;;;6.85;;
58528;SDS011;44322;52.968;5.816;2023-05-10T15:01:16;10.77;;;7.05;;
58528;SDS011;44322;52.968;5.816;2023-05-10T15:03:42;8.85;;;6.47;;
58528;SDS011;44322;52.968;5.816;2023-05-10T15:06:08;10.18;;;6.90;;
58528;SDS011;44322;52.968;5.816;2023-05-10T15:08:34;8.63;;;6.45;;
58528;SDS011;44322;52.968;5.816;2023-05-10T15:10:59;9.75;;;6.10;;
58528;SDS011;44322;52.968;5.816;2023-05-10T15:13:25;11.02;;;7.05;;
58528;SDS011;44322;52.968;5.816;2023-05-10T15:15:50;9.88;;;6.78;;
58528;SDS011;44322;52.968;5.816;2023-05-10T15:18:16;9.85;;;6.30;;
58528;SDS011;44322;52.968;5.816;2023-05-10T15:20:41;10.30;;;7.45;;
58528;SDS011;44322;52.968;5.816;2023-05-10T15:23:07;9.63;;;6.55;;
58528;SDS011;44322;52.968;5.816;2023-05-10T15:25:33;8.32;;;6.57;;
58528;SDS011;44322;52.968;5.816;2023-05-10T15:28:02;9.18;;;6.82;;
58528;SDS011;44322;52.968;5.816;2023-05-10T15:30:28;10.45;;;7.55;;
58528;SDS011;44322;52.968;5.816;2023-05-10T15:32:54;7.80;;;5.82;;
58528;SDS011;44322;52.968;5.816;2023-05-10T15:35:20;8.60;;;6.22;;
58528;SDS011;44322;52.968;5.816;2023-05-10T15:37:46;10.75;;;6.03;;
58528;SDS011;44322;52.968;5.816;2023-05-10T15:40:13;8.80;;;6.18;;